createdAt,value
2023-05-24T00:01:59.838Z,100.00
2023-05-24T00:04:30.344Z,100.00
2023-05-24T00:06:58.190Z,100.00
2023-05-24T00:09:24.755Z,100.00
2023-05-24T00:11:51.265Z,100.00
2023-05-24T00:14:17.763Z,100.00
2023-05-24T00:16:46.409Z,100.00
2023-05-24T00:19:18.212Z,100.00
2023-05-24T00:21:46.056Z,100.00
2023-05-24T00:24:12.733Z,100.00
2023-05-24T00:26:39.630Z,100.00
2023-05-24T00:29:06.316Z,100.00
2023-05-24T00:31:32.970Z,100.00
2023-05-24T00:33:59.495Z,100.00
2023-05-24T00:36:26.023Z,100.00
2023-05-24T00:38:53.654Z,100.00
2023-05-24T00:41:20.271Z,100.00
2023-05-24T00:43:46.792Z,100.00
2023-05-24T00:46:19.018Z,100.00
2023-05-24T00:48:46.591Z,100.00
2023-05-24T00:51:14.739Z,100.00
2023-05-24T00:53:47.363Z,100.00
2023-05-24T00:56:15.695Z,100.00
2023-05-24T00:58:43.139Z,100.00
2023-05-24T01:01:09.770Z,100.00
2023-05-24T01:03:36.443Z,100.00
2023-05-24T01:10:06.319Z,100.00
2023-05-24T01:13:04.635Z,100.00
2023-05-24T01:15:56.816Z,100.00
2023-05-24T01:18:30.410Z,100.00
2023-05-24T01:21:14.404Z,100.00
2023-05-24T01:24:04.551Z,100.00
2023-05-24T01:26:30.990Z,100.00
2023-05-24T01:29:00.065Z,100.00
2023-05-24T01:31:26.975Z,100.00
2023-05-24T01:33:53.530Z,100.00
2023-05-24T01:36:20.047Z,100.00
2023-05-24T01:38:46.991Z,100.00
2023-05-24T01:41:27.090Z,100.00
2023-05-24T01:44:13.368Z,100.00
2023-05-24T01:46:40.066Z,100.00
2023-05-24T01:49:13.389Z,100.00
2023-05-24T01:52:12.571Z,100.00
2023-05-24T01:54:47.733Z,100.00
2023-05-24T01:57:15.456Z,100.00
2023-05-24T01:59:43.862Z,100.00
2023-05-24T02:02:11.442Z,100.00
2023-05-24T02:04:38.438Z,100.00
2023-05-24T02:07:05.291Z,100.00
2023-05-24T02:09:32.039Z,100.00
2023-05-24T02:11:58.553Z,100.00
2023-05-24T02:14:26.347Z,100.00
2023-05-24T02:16:52.921Z,100.00
2023-05-24T02:19:19.594Z,100.00
2023-05-24T02:21:46.259Z,100.00
2023-05-24T02:24:12.771Z,100.00
2023-05-24T02:26:39.458Z,100.00
2023-05-24T02:29:06.144Z,100.00
2023-05-24T02:31:32.776Z,100.00
2023-05-24T02:33:59.301Z,100.00
2023-05-24T02:36:25.925Z,100.00
2023-05-24T02:38:52.464Z,100.00
2023-05-24T02:41:19.691Z,100.00
2023-05-24T02:43:46.915Z,100.00
2023-05-24T02:46:14.052Z,100.00
2023-05-24T02:48:40.736Z,100.00
2023-05-24T02:51:07.314Z,100.00
2023-05-24T02:53:33.921Z,100.00
2023-05-24T02:56:00.649Z,100.00
2023-05-24T02:58:30.514Z,100.00
2023-05-24T03:00:57.151Z,100.00
2023-05-24T03:03:23.784Z,100.00
2023-05-24T03:05:50.472Z,100.00
2023-05-24T03:08:16.982Z,100.00
2023-05-24T03:10:43.930Z,100.00
2023-05-24T03:13:10.748Z,100.00
2023-05-24T03:15:37.299Z,100.00
2023-05-24T03:18:04.030Z,100.00
2023-05-24T03:20:31.171Z,100.00
2023-05-24T03:22:57.951Z,100.00
2023-05-24T03:25:24.473Z,100.00
2023-05-24T03:27:50.925Z,100.00
2023-05-24T03:30:17.425Z,100.00
2023-05-24T03:32:43.965Z,100.00
2023-05-24T03:35:12.138Z,100.00
2023-05-24T03:37:38.880Z,100.00
2023-05-24T03:40:06.660Z,100.00
2023-05-24T03:42:33.139Z,100.00
2023-05-24T03:44:59.627Z,100.00
2023-05-24T03:47:26.191Z,100.00
2023-05-24T03:49:52.710Z,100.00
2023-05-24T03:52:19.163Z,100.00
2023-05-24T03:54:46.160Z,100.00
2023-05-24T03:57:12.717Z,100.00
2023-05-24T03:59:41.104Z,100.00
2023-05-24T04:02:08.227Z,100.00
2023-05-24T04:04:34.996Z,100.00
2023-05-24T04:07:01.518Z,100.00
2023-05-24T04:09:28.020Z,100.00
2023-05-24T04:11:54.727Z,100.00
2023-05-24T04:14:21.874Z,100.00
2023-05-24T04:16:48.410Z,100.00
2023-05-24T04:19:15.021Z,100.00
2023-05-24T04:21:41.706Z,100.00
2023-05-24T04:24:08.311Z,100.00
2023-05-24T04:26:34.937Z,100.00
2023-05-24T04:29:01.767Z,100.00
2023-05-24T04:31:30.350Z,100.00
2023-05-24T04:33:59.121Z,100.00
2023-05-24T04:36:26.175Z,100.00
2023-05-24T04:38:56.167Z,100.00
2023-05-24T04:41:22.795Z,100.00
2023-05-24T04:43:50.337Z,100.00
2023-05-24T04:46:16.999Z,100.00
2023-05-24T04:48:43.603Z,100.00
2023-05-24T04:51:10.317Z,100.00
2023-05-24T04:53:37.501Z,100.00
2023-05-24T04:56:04.067Z,100.00
2023-05-24T04:58:30.780Z,100.00
2023-05-24T05:00:57.276Z,100.00
2023-05-24T05:03:23.854Z,100.00
2023-05-24T05:05:50.724Z,100.00
2023-05-24T05:08:17.224Z,100.00
2023-05-24T05:10:44.327Z,100.00
2023-05-24T05:13:13.315Z,100.00
2023-05-24T05:15:41.615Z,100.00
2023-05-24T05:18:09.354Z,100.00
2023-05-24T05:20:36.111Z,100.00
2023-05-24T05:23:03.255Z,100.00
2023-05-24T05:25:30.986Z,100.00
2023-05-24T05:27:57.444Z,100.00
2023-05-24T05:30:23.917Z,100.00
2023-05-24T05:32:50.615Z,100.00
2023-05-24T05:35:17.216Z,100.00
2023-05-24T05:37:43.691Z,100.00
2023-05-24T05:40:10.633Z,100.00
2023-05-24T05:42:37.301Z,100.00
2023-05-24T05:45:04.072Z,100.00
2023-05-24T05:47:30.847Z,100.00
2023-05-24T05:49:57.347Z,100.00
2023-05-24T05:52:23.947Z,100.00
2023-05-24T05:54:51.000Z,100.00
2023-05-24T05:57:19.628Z,100.00
2023-05-24T05:59:46.131Z,100.00
2023-05-24T06:02:12.902Z,100.00
2023-05-24T06:04:39.494Z,100.00
2023-05-24T06:07:06.325Z,100.00
2023-05-24T06:09:32.781Z,100.00
2023-05-24T06:11:59.275Z,100.00
2023-05-24T06:14:25.781Z,100.00
2023-05-24T06:16:54.563Z,100.00
2023-05-24T06:19:21.084Z,100.00
2023-05-24T06:21:48.515Z,100.00
2023-05-24T06:24:15.600Z,100.00
2023-05-24T06:26:42.174Z,100.00
2023-05-24T06:29:09.806Z,100.00
2023-05-24T06:31:36.427Z,100.00
2023-05-24T06:34:04.704Z,100.00
2023-05-24T06:36:35.480Z,100.00
2023-05-24T06:39:02.815Z,100.00
2023-05-24T06:41:29.319Z,100.00
2023-05-24T06:43:55.912Z,100.00
2023-05-24T06:46:22.436Z,100.00
2023-05-24T06:48:49.054Z,100.00
2023-05-24T06:51:15.819Z,100.00
2023-05-24T06:53:42.317Z,100.00
2023-05-24T06:56:09.886Z,100.00
2023-05-24T06:58:36.663Z,100.00
2023-05-24T07:01:05.103Z,100.00
2023-05-24T07:03:32.462Z,100.00
2023-05-24T07:05:59.078Z,100.00
2023-05-24T07:08:25.695Z,100.00
2023-05-24T07:10:53.569Z,100.00
2023-05-24T07:13:20.116Z,100.00
2023-05-24T07:15:47.100Z,100.00
2023-05-24T07:18:14.439Z,100.00
2023-05-24T07:20:41.355Z,100.00
2023-05-24T07:23:08.386Z,100.00
2023-05-24T07:25:34.899Z,100.00
2023-05-24T07:28:01.361Z,100.00
2023-05-24T07:30:32.568Z,100.00
2023-05-24T07:32:59.746Z,100.00
2023-05-24T07:35:26.374Z,100.00
2023-05-24T07:37:52.962Z,100.00
2023-05-24T07:40:19.442Z,100.00
2023-05-24T07:42:47.566Z,100.00
2023-05-24T07:45:15.258Z,100.00
2023-05-24T07:47:41.902Z,100.00
2023-05-24T07:50:08.938Z,100.00
2023-05-24T07:52:35.431Z,100.00
2023-05-24T07:55:02.040Z,100.00
2023-05-24T07:57:28.589Z,100.00
2023-05-24T07:59:55.152Z,100.00
2023-05-24T08:02:21.719Z,100.00
2023-05-24T08:04:48.286Z,100.00
2023-05-24T08:07:16.178Z,100.00
2023-05-24T08:09:42.689Z,100.00
2023-05-24T08:12:09.315Z,100.00
2023-05-24T08:14:35.817Z,100.00
2023-05-24T08:17:02.306Z,100.00
2023-05-24T08:19:28.863Z,100.00
2023-05-24T08:21:57.319Z,100.00
2023-05-24T08:24:24.014Z,100.00
2023-05-24T08:26:52.768Z,100.00
2023-05-24T08:29:19.299Z,100.00
2023-05-24T08:31:45.872Z,100.00
2023-05-24T08:34:12.884Z,100.00
2023-05-24T08:36:40.857Z,100.00
2023-05-24T08:39:07.357Z,100.00
2023-05-24T08:41:37.462Z,100.00
2023-05-24T08:44:06.584Z,100.00
2023-05-24T08:46:37.153Z,100.00
2023-05-24T08:49:04.196Z,100.00
2023-05-24T08:51:32.864Z,100.00
2023-05-24T08:54:02.802Z,100.00
2023-05-24T08:56:30.362Z,100.00
2023-05-24T08:58:56.890Z,100.00
2023-05-24T09:01:25.062Z,100.00
2023-05-24T09:03:54.141Z,97.92
2023-05-24T09:06:21.487Z,97.28
2023-05-24T09:08:52.403Z,95.71
2023-05-24T09:11:19.600Z,96.36
2023-05-24T09:13:46.154Z,95.69
2023-05-24T09:16:12.841Z,92.38
2023-05-24T09:18:42.663Z,90.35
2023-05-24T09:21:11.624Z,91.43
2023-05-24T09:23:39.083Z,89.25
2023-05-24T09:26:09.819Z,89.10
2023-05-24T09:28:37.258Z,86.94
2023-05-24T09:31:07.423Z,85.32
2023-05-24T09:33:35.312Z,88.29
2023-05-24T09:36:04.551Z,88.80
2023-05-24T09:38:31.159Z,89.54
2023-05-24T09:41:08.672Z,92.32
2023-05-24T09:43:47.900Z,90.92
2023-05-24T09:46:20.461Z,91.37
2023-05-24T09:48:59.941Z,92.75
2023-05-24T09:51:27.117Z,87.16
2023-05-24T09:53:57.431Z,84.55
2023-05-24T09:56:24.811Z,86.48
2023-05-24T09:58:51.592Z,86.85
2023-05-24T10:01:19.160Z,84.13
2023-05-24T10:03:56.328Z,84.57
2023-05-24T10:06:24.021Z,83.48
2023-05-24T10:08:52.245Z,87.00
2023-05-24T10:11:19.155Z,89.15
2023-05-24T10:13:45.613Z,86.28
2023-05-24T10:16:12.896Z,86.63
2023-05-24T10:18:39.881Z,88.13
2023-05-24T10:21:08.932Z,88.35
2023-05-24T10:23:39.534Z,86.42
2023-05-24T10:26:09.045Z,87.28
2023-05-24T10:28:41.054Z,88.57
2023-05-24T10:31:17.470Z,85.96
2023-05-24T10:33:46.417Z,83.46
2023-05-24T10:36:14.223Z,83.99
2023-05-24T10:38:41.096Z,84.66
2023-05-24T10:41:08.473Z,84.72
2023-05-24T10:43:38.484Z,86.07
2023-05-24T10:46:10.573Z,85.34
2023-05-24T10:48:41.424Z,82.93
2023-05-24T10:51:32.890Z,80.16
2023-05-24T10:54:14.190Z,80.22
2023-05-24T10:56:43.138Z,81.62
2023-05-24T10:59:09.694Z,80.34
2023-05-24T11:01:36.356Z,78.10
2023-05-24T11:04:12.923Z,73.90
2023-05-24T11:07:00.529Z,72.43
2023-05-24T11:09:27.961Z,68.45
2023-05-24T11:11:57.442Z,66.96
2023-05-24T11:14:27.446Z,68.01
2023-05-24T11:16:54.544Z,67.58
2023-05-24T11:19:22.523Z,66.15
2023-05-24T11:21:53.793Z,65.39
2023-05-24T11:24:22.018Z,67.83
2023-05-24T11:26:50.195Z,67.18
2023-05-24T11:29:22.776Z,68.66
2023-05-24T11:31:54.301Z,69.94
2023-05-24T11:34:21.692Z,67.15
2023-05-24T11:36:49.224Z,66.90
2023-05-24T11:39:16.621Z,67.92
2023-05-24T11:41:43.779Z,68.44
2023-05-24T11:44:11.618Z,69.25
2023-05-24T11:46:39.490Z,70.07
2023-05-24T11:49:06.943Z,68.93
2023-05-24T11:51:35.802Z,71.16
2023-05-24T11:54:02.297Z,69.95
2023-05-24T11:56:32.447Z,69.04
2023-05-24T11:59:06.180Z,67.18
2023-05-24T12:01:32.938Z,66.70
2023-05-24T12:03:59.857Z,66.40
2023-05-24T12:06:35.643Z,65.75
2023-05-24T12:09:05.499Z,65.26
2023-05-24T12:11:32.663Z,66.11
2023-05-24T12:13:59.459Z,65.91
2023-05-24T12:16:27.197Z,67.05
2023-05-24T12:19:04.174Z,67.77
2023-05-24T12:21:35.347Z,68.79
2023-05-24T12:24:15.402Z,69.35
2023-05-24T12:26:48.045Z,69.77
2023-05-24T12:29:15.101Z,70.67
2023-05-24T12:31:43.406Z,69.75
2023-05-24T12:34:14.475Z,69.09
2023-05-24T12:36:43.292Z,69.27
2023-05-24T12:39:24.256Z,68.72
2023-05-24T12:41:52.792Z,69.44
2023-05-24T12:44:27.386Z,68.44
2023-05-24T12:46:55.720Z,68.05
2023-05-24T12:49:23.396Z,67.85
2023-05-24T12:51:50.879Z,67.14
2023-05-24T12:54:25.954Z,67.42
2023-05-24T12:56:55.815Z,67.06
2023-05-24T12:59:23.373Z,66.13
2023-05-24T13:01:53.151Z,65.29
2023-05-24T13:04:22.162Z,64.88
2023-05-24T13:06:49.145Z,64.62
2023-05-24T13:09:18.858Z,63.17
2023-05-24T13:11:47.306Z,64.28
2023-05-24T13:14:15.571Z,63.32
2023-05-24T13:16:42.402Z,63.13
2023-05-24T13:19:09.007Z,64.14
2023-05-24T13:21:35.660Z,63.01
2023-05-24T13:24:02.347Z,63.56
2023-05-24T13:26:29.736Z,64.37
2023-05-24T13:29:21.882Z,64.79
2023-05-24T13:31:43.000Z,64.08
2023-05-24T13:34:12.511Z,63.74
2023-05-24T13:36:39.513Z,63.65
2023-05-24T13:41:37.703Z,63.64
2023-05-24T13:44:04.701Z,64.08
2023-05-24T13:46:31.315Z,65.67
2023-05-24T13:48:58.676Z,65.16
2023-05-24T13:51:27.022Z,63.98
2023-05-24T13:53:55.616Z,64.13
2023-05-24T13:56:24.174Z,65.31
2023-05-24T13:58:50.932Z,65.50
2023-05-24T14:01:17.495Z,64.84
2023-05-24T14:03:43.993Z,64.85
2023-05-24T14:06:11.008Z,65.83
2023-05-24T14:08:37.592Z,66.15
2023-05-24T14:11:04.339Z,66.83
2023-05-24T14:16:00.651Z,68.22
2023-05-24T14:18:27.315Z,68.13
2023-05-24T14:20:53.890Z,69.13
2023-05-24T14:23:21.006Z,70.01
2023-05-24T14:25:47.563Z,71.18
2023-05-24T14:28:14.066Z,70.67
2023-05-24T14:30:41.936Z,72.29
2023-05-24T14:33:09.266Z,71.77
2023-05-24T14:35:39.616Z,71.53
2023-05-24T14:38:08.733Z,71.49
2023-05-24T14:40:37.091Z,69.90
2023-05-24T14:43:04.637Z,70.44
2023-05-24T14:45:31.339Z,69.95
2023-05-24T14:47:58.199Z,68.67
2023-05-24T14:50:24.807Z,68.41
2023-05-24T14:52:53.180Z,69.91
2023-05-24T14:55:22.036Z,68.68
2023-05-24T14:57:49.493Z,68.39
2023-05-24T15:00:17.541Z,68.99
2023-05-24T15:02:45.759Z,69.59
2023-05-24T15:05:12.278Z,69.50
2023-05-24T15:07:38.816Z,69.06
2023-05-24T15:10:05.808Z,69.26
2023-05-24T15:12:32.293Z,69.25
2023-05-24T15:14:58.993Z,68.67
2023-05-24T15:17:26.554Z,67.55
2023-05-24T15:19:56.704Z,65.69
2023-05-24T15:22:23.622Z,65.53
2023-05-24T15:24:50.308Z,62.60
2023-05-24T15:27:17.329Z,64.84
2023-05-24T15:29:43.883Z,65.69
2023-05-24T15:32:10.488Z,65.27
2023-05-24T15:34:37.020Z,66.19
2023-05-24T15:37:03.535Z,66.12
2023-05-24T15:39:29.994Z,66.83
2023-05-24T15:41:57.010Z,66.94
2023-05-24T15:44:23.520Z,68.08
2023-05-24T15:46:50.053Z,68.05
2023-05-24T15:49:16.628Z,68.25
2023-05-24T15:54:12.563Z,69.11
2023-05-24T15:56:39.005Z,68.83
2023-05-24T15:59:05.525Z,70.23
2023-05-24T16:01:32.091Z,70.07
2023-05-24T16:03:58.834Z,70.00
2023-05-24T16:06:25.411Z,69.45
2023-05-24T16:08:51.930Z,70.09
2023-05-24T16:11:20.933Z,70.82
2023-05-24T16:13:50.047Z,71.15
2023-05-24T16:16:16.810Z,73.09
2023-05-24T16:18:43.445Z,73.63
2023-05-24T16:21:10.398Z,72.34
2023-05-24T16:23:37.521Z,72.73
2023-05-24T16:26:04.190Z,73.66
2023-05-24T16:28:30.754Z,75.00
2023-05-24T16:30:58.695Z,74.14
2023-05-24T16:33:25.351Z,74.21
2023-05-24T16:35:55.789Z,74.82
2023-05-24T16:38:23.446Z,75.72
2023-05-24T16:40:50.456Z,74.89
2023-05-24T16:43:17.719Z,75.54
2023-05-24T16:45:44.802Z,76.35
2023-05-24T16:48:12.126Z,75.92
2023-05-24T16:50:39.316Z,77.57
2023-05-24T16:53:06.808Z,76.77
2023-05-24T16:55:33.524Z,77.47
2023-05-24T16:58:00.307Z,77.88
2023-05-24T17:00:26.901Z,77.19
2023-05-24T17:02:54.639Z,78.81
2023-05-24T17:05:21.371Z,79.86
2023-05-24T17:07:47.997Z,78.90
2023-05-24T17:10:14.570Z,78.69
2023-05-24T17:12:41.305Z,79.87
2023-05-24T17:15:08.297Z,79.84
2023-05-24T17:17:34.959Z,81.89
2023-05-24T17:20:02.879Z,81.58
2023-05-24T17:22:29.582Z,80.82
2023-05-24T17:24:56.186Z,80.44
2023-05-24T17:27:22.853Z,80.51
2023-05-24T17:29:49.503Z,83.01
2023-05-24T17:32:16.355Z,82.93
2023-05-24T17:34:42.933Z,82.50
2023-05-24T17:37:09.520Z,82.61
2023-05-24T17:39:36.105Z,82.99
2023-05-24T17:42:02.956Z,82.97
2023-05-24T17:44:29.560Z,83.59
2023-05-24T17:46:57.429Z,84.71
2023-05-24T17:49:24.442Z,84.44
2023-05-24T17:51:50.962Z,83.63
2023-05-24T17:54:17.490Z,83.72
2023-05-24T17:56:44.170Z,83.99
2023-05-24T17:59:11.041Z,84.69
2023-05-24T18:01:38.229Z,85.36
2023-05-24T18:04:07.597Z,85.56
2023-05-24T18:06:34.871Z,86.65
2023-05-24T18:09:01.336Z,87.00
2023-05-24T18:11:28.481Z,86.26
2023-05-24T18:13:54.984Z,86.71
2023-05-24T18:16:21.577Z,88.05
2023-05-24T18:18:48.059Z,88.16
2023-05-24T18:21:14.742Z,89.10
2023-05-24T18:23:42.397Z,89.72
2023-05-24T18:26:10.777Z,90.37
2023-05-24T18:28:38.608Z,92.00
2023-05-24T18:31:08.427Z,93.13
2023-05-24T18:33:35.186Z,93.66
2023-05-24T18:36:02.086Z,94.28
2023-05-24T18:38:28.560Z,95.17
2023-05-24T18:40:55.142Z,95.92
2023-05-24T18:43:21.784Z,97.05
2023-05-24T18:45:48.551Z,97.54
2023-05-24T18:48:15.093Z,98.39
2023-05-24T18:50:41.608Z,99.52
2023-05-24T18:53:09.438Z,99.63
2023-05-24T18:55:36.109Z,99.61
2023-05-24T18:58:02.627Z,100.00
2023-05-24T19:00:29.148Z,100.00
2023-05-24T19:02:56.403Z,100.00
2023-05-24T19:05:22.938Z,100.00
2023-05-24T19:07:49.662Z,100.00
2023-05-24T19:10:16.326Z,100.00
2023-05-24T19:12:42.823Z,100.00
2023-05-24T19:15:09.618Z,100.00
2023-05-24T19:17:36.167Z,100.00
2023-05-24T19:20:03.222Z,100.00
2023-05-24T19:22:29.934Z,100.00
2023-05-24T19:24:57.099Z,100.00
2023-05-24T19:27:24.570Z,100.00
2023-05-24T19:29:51.165Z,100.00
2023-05-24T19:32:18.380Z,100.00
2023-05-24T19:34:45.136Z,100.00
2023-05-24T19:37:11.703Z,100.00
2023-05-24T19:39:38.895Z,100.00
2023-05-24T19:42:06.596Z,100.00
2023-05-24T19:44:33.080Z,100.00
2023-05-24T19:46:59.597Z,100.00
2023-05-24T19:49:26.229Z,100.00
2023-05-24T19:51:52.751Z,100.00
2023-05-24T19:54:19.341Z,100.00
2023-05-24T19:56:49.797Z,100.00
2023-05-24T19:59:17.447Z,100.00
2023-05-24T20:01:44.428Z,100.00
2023-05-24T20:04:12.149Z,100.00
2023-05-24T20:06:38.987Z,100.00
2023-05-24T20:09:05.684Z,100.00
2023-05-24T20:11:32.259Z,100.00
2023-05-24T20:13:59.880Z,100.00
2023-05-24T20:16:27.341Z,100.00
2023-05-24T20:18:53.865Z,100.00
2023-05-24T20:21:20.851Z,100.00
2023-05-24T20:23:47.347Z,100.00
2023-05-24T20:26:13.888Z,100.00
2023-05-24T20:28:40.402Z,100.00
2023-05-24T20:31:07.181Z,100.00
2023-05-24T20:33:37.909Z,100.00
2023-05-24T20:36:05.403Z,100.00
2023-05-24T20:38:32.071Z,100.00
2023-05-24T20:40:58.727Z,100.00
2023-05-24T20:43:25.267Z,100.00
2023-05-24T20:45:52.070Z,100.00
2023-05-24T20:48:19.163Z,100.00
2023-05-24T20:50:45.793Z,100.00
2023-05-24T20:53:12.366Z,100.00
2023-05-24T20:55:38.876Z,100.00
2023-05-24T20:58:05.516Z,100.00
2023-05-24T21:00:31.988Z,100.00
2023-05-24T21:02:58.530Z,100.00
2023-05-24T21:05:25.101Z,100.00
2023-05-24T21:07:51.617Z,100.00
2023-05-24T21:10:18.750Z,100.00
2023-05-24T21:12:46.461Z,100.00
2023-05-24T21:15:12.992Z,100.00
2023-05-24T21:17:39.823Z,100.00
2023-05-24T21:20:07.590Z,100.00
2023-05-24T21:22:34.154Z,100.00
2023-05-24T21:25:00.696Z,100.00
2023-05-24T21:27:27.493Z,100.00
2023-05-24T21:29:53.962Z,100.00
2023-05-24T21:32:20.774Z,100.00
2023-05-24T21:34:47.313Z,100.00
2023-05-24T21:37:13.802Z,100.00
2023-05-24T21:39:40.362Z,100.00
2023-05-24T21:42:07.026Z,100.00
2023-05-24T21:44:33.497Z,100.00
2023-05-24T21:47:00.106Z,100.00
2023-05-24T21:49:27.610Z,100.00
2023-05-24T21:51:54.147Z,100.00
2023-05-24T21:54:20.836Z,100.00
2023-05-24T21:56:47.346Z,100.00
2023-05-24T21:59:14.186Z,100.00
2023-05-24T22:01:40.859Z,100.00
2023-05-24T22:04:09.095Z,100.00
2023-05-24T22:06:36.411Z,100.00
2023-05-24T22:09:02.926Z,100.00
2023-05-24T22:11:29.410Z,100.00
2023-05-24T22:13:56.608Z,100.00
2023-05-24T22:16:24.036Z,100.00
2023-05-24T22:18:55.453Z,100.00
2023-05-24T22:21:22.740Z,100.00
2023-05-24T22:23:51.424Z,100.00
2023-05-24T22:26:17.956Z,100.00
2023-05-24T22:28:50.918Z,100.00
2023-05-24T22:31:19.911Z,100.00
2023-05-24T22:33:49.899Z,100.00
2023-05-24T22:36:16.769Z,100.00
2023-05-24T22:38:44.202Z,100.00
2023-05-24T22:41:10.920Z,100.00
2023-05-24T22:43:37.449Z,100.00
2023-05-24T22:46:07.588Z,100.00
2023-05-24T22:48:35.501Z,100.00
2023-05-24T22:51:02.161Z,100.00
2023-05-24T22:53:28.801Z,100.00
2023-05-24T22:55:55.537Z,100.00
2023-05-24T22:58:23.512Z,100.00
2023-05-24T23:00:51.249Z,100.00
2023-05-24T23:03:18.138Z,100.00
2023-05-24T23:05:45.649Z,100.00
2023-05-24T23:08:15.477Z,100.00
2023-05-24T23:10:48.513Z,100.00
2023-05-24T23:13:19.144Z,100.00
2023-05-24T23:15:46.871Z,100.00
2023-05-24T23:18:16.310Z,100.00
2023-05-24T23:20:44.280Z,100.00
2023-05-24T23:23:11.212Z,100.00
2023-05-24T23:25:37.826Z,100.00
2023-05-24T23:28:04.701Z,100.00
2023-05-24T23:30:31.339Z,100.00
2023-05-24T23:32:57.940Z,100.00
2023-05-24T23:35:24.464Z,100.00
2023-05-24T23:37:50.957Z,100.00
2023-05-24T23:40:17.506Z,100.00
2023-05-24T23:42:44.050Z,100.00
2023-05-24T23:45:10.993Z,100.00
2023-05-24T23:47:37.542Z,100.00
2023-05-24T23:50:04.372Z,100.00
2023-05-24T23:52:31.244Z,100.00
2023-05-24T23:54:57.909Z,100.00
2023-05-24T23:57:24.972Z,100.00
2023-05-24T23:59:51.445Z,100.00
